createdAt,value
2023-08-07T00:01:21.615Z,98676.16
2023-08-07T00:03:24.741Z,98678.35
2023-08-07T00:05:26.944Z,98681.11
2023-08-07T00:07:28.866Z,98668.39
2023-08-07T00:09:30.545Z,98671.22
2023-08-07T00:11:32.628Z,98673.23
2023-08-07T00:13:34.361Z,98664.58
2023-08-07T00:15:39.139Z,98667.13
2023-08-07T00:17:41.032Z,98659.05
2023-08-07T00:19:43.010Z,98655.10
2023-08-07T00:21:47.046Z,98657.55
2023-08-07T00:23:50.960Z,98655.67
2023-08-07T00:25:52.891Z,98650.11
2023-08-07T00:27:54.776Z,98646.33
2023-08-07T00:29:57.658Z,98642.15
2023-08-07T00:31:59.919Z,98640.22
2023-08-07T00:34:01.728Z,98632.15
2023-08-07T00:36:04.321Z,98636.23
2023-08-07T00:38:06.199Z,98629.61
2023-08-07T00:40:08.806Z,98629.77
2023-08-07T00:42:10.480Z,98627.26
2023-08-07T00:44:12.248Z,98621.77
2023-08-07T00:46:14.335Z,98623.20
2023-08-07T00:48:18.774Z,98629.01
2023-08-07T00:50:22.766Z,98626.25
2023-08-07T00:52:27.320Z,98630.56
2023-08-07T00:54:29.241Z,98621.02
2023-08-07T00:56:32.299Z,98619.25
2023-08-07T00:58:35.179Z,98614.37
2023-08-07T01:00:37.259Z,98618.38
2023-08-07T01:02:39.313Z,98612.54
2023-08-07T01:04:41.194Z,98613.14
2023-08-07T01:06:43.486Z,98603.50
2023-08-07T01:08:46.890Z,98598.34
2023-08-07T01:11:13.240Z,98596.19
2023-08-07T01:13:27.319Z,98595.43
2023-08-07T01:15:33.116Z,98591.59
2023-08-07T01:17:36.079Z,98589.55
2023-08-07T01:19:39.346Z,98587.69
2023-08-07T01:21:42.026Z,98589.91
2023-08-07T01:23:45.271Z,98586.54
2023-08-07T01:25:47.469Z,98585.35
2023-08-07T01:28:31.774Z,98580.02
2023-08-07T01:30:47.695Z,98569.56
2023-08-07T01:33:08.731Z,98563.54
2023-08-07T01:35:13.639Z,98574.48
2023-08-07T01:37:16.711Z,98572.79
2023-08-07T01:39:21.098Z,98574.04
2023-08-07T01:41:22.863Z,98561.84
2023-08-07T01:43:25.169Z,98563.39
2023-08-07T01:45:28.838Z,98556.80
2023-08-07T01:47:30.643Z,98555.84
2023-08-07T01:49:32.411Z,98548.55
2023-08-07T01:51:34.430Z,98533.96
2023-08-07T01:53:36.223Z,98524.96
2023-08-07T01:55:37.864Z,98520.95
2023-08-07T01:57:39.738Z,98523.73
2023-08-07T01:59:41.423Z,98520.20
2023-08-07T02:01:43.180Z,98524.66
2023-08-07T02:03:44.914Z,98515.59
2023-08-07T02:05:47.700Z,98511.89
2023-08-07T02:07:49.440Z,98506.19
2023-08-07T02:09:51.202Z,98514.39
2023-08-07T02:11:52.900Z,98513.55
2023-08-07T02:13:54.848Z,98520.59
2023-08-07T02:15:56.534Z,98523.92
2023-08-07T02:17:58.473Z,98520.11
2023-08-07T02:20:00.241Z,98530.92
2023-08-07T02:22:02.863Z,98536.92
2023-08-07T02:24:05.123Z,98538.32
2023-08-07T02:26:06.786Z,98533.10
2023-08-07T02:28:08.763Z,98542.48
2023-08-07T02:30:11.266Z,98545.96
2023-08-07T02:32:13.086Z,98543.45
2023-08-07T02:34:14.756Z,98533.69
2023-08-07T02:36:16.711Z,98534.60
2023-08-07T02:38:18.402Z,98528.03
2023-08-07T02:40:21.035Z,98537.75
2023-08-07T02:42:22.704Z,98533.81
2023-08-07T02:44:24.650Z,98538.77
2023-08-07T02:46:26.862Z,98535.55
2023-08-07T02:48:28.500Z,98523.53
2023-08-07T02:50:33.761Z,98524.23
2023-08-07T02:52:35.671Z,98547.71
2023-08-07T02:54:37.524Z,98532.64
2023-08-07T02:56:39.160Z,98521.14
2023-08-07T02:58:40.845Z,98524.40
2023-08-07T03:00:44.235Z,98530.85
2023-08-07T03:02:46.179Z,98522.52
2023-08-07T03:04:48.213Z,98526.22
2023-08-07T03:06:50.160Z,98521.73
2023-08-07T03:08:52.856Z,98518.10
2023-08-07T03:10:56.969Z,98519.30
2023-08-07T03:12:59.561Z,98530.34
2023-08-07T03:15:02.033Z,98522.03
2023-08-07T03:17:04.052Z,98518.30
2023-08-07T03:19:06.072Z,98523.85
2023-08-07T03:21:08.415Z,98513.70
2023-08-07T03:23:11.292Z,98510.41
2023-08-07T03:25:13.028Z,98506.66
2023-08-07T03:27:15.685Z,98501.56
2023-08-07T03:29:18.092Z,98504.73
2023-08-07T03:31:20.466Z,98503.30
2023-08-07T03:33:22.332Z,98503.88
2023-08-07T03:35:24.118Z,98500.15
2023-08-07T03:37:25.778Z,98498.04
2023-08-07T03:39:27.547Z,98516.19
2023-08-07T03:41:31.390Z,98512.92
2023-08-07T03:43:33.216Z,98512.87
2023-08-07T03:45:35.292Z,98508.29
2023-08-07T03:47:37.035Z,98502.08
2023-08-07T03:49:38.986Z,98508.08
2023-08-07T03:51:40.835Z,98506.95
2023-08-07T03:53:43.683Z,98504.91
2023-08-07T03:55:51.431Z,98506.02
2023-08-07T03:57:53.257Z,98508.23
2023-08-07T03:59:55.637Z,98517.42
2023-08-07T04:01:57.901Z,98497.75
2023-08-07T04:03:59.571Z,98499.40
2023-08-07T04:06:06.842Z,98489.78
2023-08-07T04:08:08.863Z,98496.27
2023-08-07T04:10:10.767Z,98488.48
2023-08-07T04:12:12.440Z,98476.32
2023-08-07T04:14:15.412Z,98478.73
2023-08-07T04:16:18.267Z,98472.17
2023-08-07T04:18:20.669Z,98471.42
2023-08-07T04:20:22.519Z,98478.78
2023-08-07T04:22:25.820Z,98475.80
2023-08-07T04:24:27.498Z,98475.60
2023-08-07T04:26:29.196Z,98472.48
2023-08-07T04:28:31.111Z,98467.91
2023-08-07T04:30:32.788Z,98470.28
2023-08-07T04:32:34.783Z,98469.81
2023-08-07T04:34:36.662Z,98464.65
2023-08-07T04:36:38.390Z,98468.43
2023-08-07T04:38:40.125Z,98462.16
2023-08-07T04:40:49.001Z,98472.42
2023-08-07T04:42:51.664Z,98468.20
2023-08-07T04:44:53.527Z,98459.26
2023-08-07T04:46:55.502Z,98456.04
2023-08-07T04:48:57.550Z,98451.11
2023-08-07T04:50:59.562Z,98444.51
2023-08-07T04:53:01.627Z,98463.23
2023-08-07T04:55:03.282Z,98467.92
2023-08-07T04:57:05.000Z,98456.95
2023-08-07T04:59:06.655Z,98461.75
2023-08-07T05:01:10.355Z,98460.09
2023-08-07T05:03:12.503Z,98447.80
2023-08-07T05:05:15.960Z,98454.41
2023-08-07T05:07:17.710Z,98437.98
2023-08-07T05:09:20.838Z,98435.19
2023-08-07T05:11:22.587Z,98438.41
2023-08-07T05:13:26.538Z,98426.77
2023-08-07T05:15:29.694Z,98416.82
2023-08-07T05:17:32.641Z,98416.90
2023-08-07T05:19:34.375Z,98424.21
2023-08-07T05:21:36.110Z,98417.11
2023-08-07T05:23:39.910Z,98424.58
2023-08-07T05:25:41.632Z,98420.89
2023-08-07T05:27:44.370Z,98421.02
2023-08-07T05:29:46.244Z,98411.67
2023-08-07T05:31:50.220Z,98415.66
2023-08-07T05:33:52.451Z,98422.80
2023-08-07T05:35:54.175Z,98434.89
2023-08-07T05:37:55.867Z,98437.01
2023-08-07T05:39:57.856Z,98419.23
2023-08-07T05:42:00.321Z,98422.88
2023-08-07T05:44:02.019Z,98426.34
2023-08-07T05:46:03.927Z,98429.78
2023-08-07T05:48:08.135Z,98419.27
2023-08-07T05:50:10.221Z,98422.63
2023-08-07T05:52:11.881Z,98426.29
2023-08-07T05:54:13.644Z,98422.85
2023-08-07T05:56:15.612Z,98419.40
2023-08-07T05:58:17.751Z,98427.67
2023-08-07T06:00:20.914Z,98427.89
2023-08-07T06:02:22.570Z,98421.48
2023-08-07T06:04:24.732Z,98417.62
2023-08-07T06:06:30.296Z,98415.15
2023-08-07T06:08:32.228Z,98405.64
2023-08-07T06:10:33.922Z,98414.58
2023-08-07T06:12:36.053Z,98428.05
2023-08-07T06:14:38.732Z,98427.55
2023-08-07T06:16:40.422Z,98434.20
2023-08-07T06:18:42.267Z,98431.12
2023-08-07T06:20:44.198Z,98437.64
2023-08-07T06:22:46.138Z,98429.77
2023-08-07T06:24:48.199Z,98422.14
2023-08-07T06:26:50.949Z,98423.95
2023-08-07T06:28:53.043Z,98426.98
2023-08-07T06:30:54.901Z,98427.16
2023-08-07T06:32:56.585Z,98431.23
2023-08-07T06:34:58.946Z,98416.56
2023-08-07T06:37:00.620Z,98420.48
2023-08-07T06:39:03.660Z,98404.28
2023-08-07T06:41:05.657Z,98406.38
2023-08-07T06:43:07.838Z,98399.73
2023-08-07T06:45:10.253Z,98414.36
2023-08-07T06:47:12.241Z,98416.99
2023-08-07T06:49:14.314Z,98412.90
2023-08-07T06:51:16.966Z,98405.86
2023-08-07T06:53:19.324Z,98404.24
2023-08-07T06:55:21.501Z,98394.18
2023-08-07T06:57:23.532Z,98393.64
2023-08-07T06:59:27.357Z,98397.58
2023-08-07T07:01:29.334Z,98403.16
2023-08-07T07:03:31.199Z,98395.26
2023-08-07T07:05:34.168Z,98384.90
2023-08-07T07:07:36.740Z,98393.00
2023-08-07T07:09:38.496Z,98402.83
2023-08-07T07:11:40.130Z,98405.41
2023-08-07T07:13:42.741Z,98404.05
2023-08-07T07:15:44.440Z,98415.11
2023-08-07T07:17:46.288Z,98419.30
2023-08-07T07:19:48.385Z,98411.84
2023-08-07T07:21:51.683Z,98414.28
2023-08-07T07:23:53.627Z,98391.94
2023-08-07T07:25:55.783Z,98399.77
2023-08-07T07:27:57.544Z,98403.80
2023-08-07T07:29:59.412Z,98424.19
2023-08-07T07:32:01.288Z,98428.60
2023-08-07T07:34:03.337Z,98432.11
2023-08-07T07:36:05.291Z,98459.63
2023-08-07T07:38:08.389Z,98455.34
2023-08-07T07:40:12.896Z,98460.41
2023-08-07T07:42:14.535Z,98456.35
2023-08-07T07:44:16.448Z,98437.60
2023-08-07T07:46:19.585Z,98427.19
2023-08-07T07:48:21.366Z,98424.30
2023-08-07T07:50:23.660Z,98420.62
2023-08-07T07:52:25.338Z,98414.87
2023-08-07T07:54:27.300Z,98409.05
2023-08-07T07:56:29.083Z,98414.90
2023-08-07T07:58:31.381Z,98426.55
2023-08-07T08:00:33.463Z,98429.65
2023-08-07T08:02:35.258Z,98433.23
2023-08-07T08:04:37.024Z,98433.48
2023-08-07T08:06:39.944Z,98435.36
2023-08-07T08:08:43.706Z,98431.27
2023-08-07T08:10:49.314Z,98423.98
2023-08-07T08:12:51.205Z,98426.47
2023-08-07T08:14:56.237Z,98426.02
2023-08-07T08:16:58.821Z,98417.91
2023-08-07T08:19:00.905Z,98414.61
2023-08-07T08:21:02.721Z,98409.73
2023-08-07T08:23:05.920Z,98408.80
2023-08-07T08:25:08.261Z,98407.27
2023-08-07T08:27:10.013Z,98412.19
2023-08-07T08:29:15.878Z,98414.98
2023-08-07T08:31:17.907Z,98423.06
2023-08-07T08:33:19.880Z,98420.59
2023-08-07T08:35:22.384Z,98427.42
2023-08-07T08:37:24.031Z,98423.97
2023-08-07T08:39:25.902Z,98426.79
2023-08-07T08:41:28.213Z,98428.42
2023-08-07T08:43:33.635Z,98431.42
2023-08-07T08:45:39.272Z,98438.58
2023-08-07T08:47:42.724Z,98428.67
2023-08-07T08:49:50.120Z,98434.59
2023-08-07T08:51:52.288Z,98444.06
2023-08-07T08:53:55.136Z,98443.33
2023-08-07T08:55:56.900Z,98434.03
2023-08-07T08:58:01.939Z,98433.75
2023-08-07T09:00:19.299Z,98430.38
2023-08-07T09:02:21.611Z,98429.66
2023-08-07T09:04:23.352Z,98426.48
2023-08-07T09:06:27.113Z,98425.46
2023-08-07T09:08:32.667Z,98425.31
2023-08-07T09:10:35.710Z,98421.80
2023-08-07T09:13:01.431Z,98418.92
2023-08-07T09:15:06.005Z,98421.29
2023-08-07T09:17:08.239Z,98425.31
2023-08-07T09:19:09.892Z,98424.69
2023-08-07T09:21:11.869Z,98424.83
2023-08-07T09:23:14.271Z,98441.98
2023-08-07T09:25:16.178Z,98447.88
2023-08-07T09:27:18.456Z,98478.67
2023-08-07T09:29:22.380Z,98493.09
2023-08-07T09:31:27.726Z,98504.52
2023-08-07T09:33:31.502Z,98512.29
2023-08-07T09:35:34.557Z,98516.64
2023-08-07T09:37:38.337Z,98509.34
2023-08-07T09:39:41.502Z,98494.27
2023-08-07T09:41:43.286Z,98502.64
2023-08-07T09:43:45.115Z,98510.56
2023-08-07T09:45:46.984Z,98506.31
2023-08-07T09:48:08.016Z,98509.29
2023-08-07T09:50:18.019Z,98516.59
2023-08-07T09:52:20.043Z,98531.77
2023-08-07T09:54:21.865Z,98543.25
2023-08-07T09:56:23.618Z,98543.74
2023-08-07T09:58:25.663Z,98540.39
2023-08-07T10:00:27.421Z,98537.85
2023-08-07T10:02:30.215Z,98529.91
2023-08-07T10:04:32.270Z,98529.88
2023-08-07T10:06:35.181Z,98551.97
2023-08-07T10:08:37.720Z,98559.91
2023-08-07T10:10:40.305Z,98553.91
2023-08-07T10:12:42.727Z,98563.94
2023-08-07T10:14:46.229Z,98581.60
2023-08-07T10:16:48.870Z,98598.00
2023-08-07T10:18:50.608Z,98612.39
2023-08-07T10:20:52.801Z,98608.10
2023-08-07T10:23:01.025Z,98596.02
2023-08-07T10:25:04.145Z,98588.70
2023-08-07T10:27:08.000Z,98583.34
2023-08-07T10:29:14.297Z,98589.43
2023-08-07T10:31:16.390Z,98603.66
2023-08-07T10:33:21.606Z,98609.55
2023-08-07T10:35:33.807Z,98610.50
2023-08-07T10:37:43.586Z,98613.07
2023-08-07T10:40:05.767Z,98612.95
2023-08-07T10:42:07.657Z,98607.25
2023-08-07T10:44:26.312Z,98604.45
2023-08-07T10:48:23.098Z,98617.31
2023-08-07T10:50:35.791Z,98631.95
2023-08-07T10:52:40.841Z,98638.11
2023-08-07T10:54:47.677Z,98636.55
2023-08-07T10:56:56.841Z,98647.81
2023-08-07T10:58:59.238Z,98657.50
2023-08-07T11:01:21.070Z,98657.56
2023-08-07T11:03:29.283Z,98665.34
2023-08-07T11:05:32.174Z,98667.09
2023-08-07T11:07:34.869Z,98671.64
2023-08-07T11:09:37.270Z,98676.86
2023-08-07T11:11:47.388Z,98675.76
2023-08-07T11:13:49.320Z,98677.56
2023-08-07T11:15:51.230Z,98670.81
2023-08-07T11:17:54.128Z,98685.67
2023-08-07T11:19:57.448Z,98697.08
2023-08-07T11:21:59.222Z,98712.27
2023-08-07T11:24:02.364Z,98719.83
2023-08-07T11:26:04.668Z,98727.21
2023-08-07T11:28:06.433Z,98727.69
2023-08-07T11:30:12.922Z,98731.73
2023-08-07T11:32:15.354Z,98732.82
2023-08-07T11:34:19.467Z,98735.64
2023-08-07T11:36:22.392Z,98732.36
2023-08-07T11:38:52.612Z,98733.86
2023-08-07T11:40:56.985Z,98734.42
2023-08-07T11:42:58.989Z,98738.84
2023-08-07T11:45:00.748Z,98744.00
2023-08-07T11:47:03.707Z,98749.54
2023-08-07T11:49:06.016Z,98760.44
2023-08-07T11:51:10.791Z,98767.30
2023-08-07T11:53:14.076Z,98773.34
2023-08-07T11:55:16.220Z,98772.15
2023-08-07T11:57:19.335Z,98772.36
2023-08-07T11:59:21.401Z,98774.35
2023-08-07T12:01:24.120Z,98769.73
2023-08-07T12:03:31.172Z,98771.65
2023-08-07T12:05:42.128Z,98774.40
2023-08-07T12:07:44.166Z,98769.81
2023-08-07T12:09:46.343Z,98777.87
2023-08-07T12:11:48.187Z,98785.14
2023-08-07T12:13:51.131Z,98784.38
2023-08-07T12:15:55.115Z,98782.41
2023-08-07T12:18:03.181Z,98798.61
2023-08-07T12:20:08.603Z,98802.73
2023-08-07T12:22:12.274Z,98802.34
2023-08-07T12:24:14.596Z,98806.23
2023-08-07T12:26:17.605Z,98817.54
2023-08-07T12:28:19.757Z,98823.91
2023-08-07T12:30:21.840Z,98827.59
2023-08-07T12:32:23.671Z,98830.89
2023-08-07T12:36:30.542Z,98847.73
2023-08-07T12:38:32.271Z,98850.21
2023-08-07T12:40:38.079Z,98847.14
2023-08-07T12:42:41.995Z,98852.75
2023-08-07T12:44:44.755Z,98854.64
2023-08-07T12:46:49.987Z,98861.36
2023-08-07T12:48:51.806Z,98864.06
2023-08-07T12:50:54.042Z,98870.73
2023-08-07T12:52:57.097Z,98871.09
2023-08-07T12:54:58.750Z,98877.65
2023-08-07T12:57:00.368Z,98884.25
2023-08-07T12:59:02.458Z,98892.05
2023-08-07T13:01:05.858Z,98893.00
2023-08-07T13:03:07.526Z,98896.30
2023-08-07T13:05:10.568Z,98906.71
2023-08-07T13:07:12.521Z,98914.95
2023-08-07T13:09:15.383Z,98924.34
2023-08-07T13:11:17.333Z,98930.72
2023-08-07T13:13:19.083Z,98941.75
2023-08-07T13:15:20.953Z,98946.46
2023-08-07T13:17:23.646Z,98957.86
2023-08-07T13:19:25.394Z,98962.60
2023-08-07T13:21:27.128Z,98963.85
2023-08-07T13:23:30.074Z,98972.59
2023-08-07T13:25:31.870Z,98978.13
2023-08-07T13:27:34.323Z,98981.11
2023-08-07T13:29:36.852Z,98981.15
2023-08-07T13:31:38.768Z,98983.36
2023-08-07T13:33:40.626Z,98969.14
2023-08-07T13:35:42.524Z,98978.02
2023-08-07T13:37:44.340Z,98976.78
2023-08-07T13:39:46.133Z,98988.84
2023-08-07T13:41:48.519Z,98991.52
2023-08-07T13:43:50.176Z,98993.70
2023-08-07T13:45:54.838Z,99000.27
2023-08-07T13:47:56.566Z,99010.30
2023-08-07T13:49:59.404Z,99019.33
2023-08-07T13:52:01.235Z,99023.14
2023-08-07T13:54:02.869Z,99027.66
2023-08-07T13:56:05.024Z,99027.95
2023-08-07T13:58:07.103Z,99035.89
2023-08-07T14:00:09.782Z,99044.22
2023-08-07T14:02:11.709Z,99044.92
2023-08-07T14:04:14.720Z,99051.41
2023-08-07T14:06:18.025Z,99060.82
2023-08-07T14:08:19.672Z,99067.19
2023-08-07T14:10:21.620Z,99073.50
2023-08-07T14:12:23.238Z,99082.01
2023-08-07T14:14:25.144Z,99089.71
2023-08-07T14:16:27.315Z,99085.29
2023-08-07T14:18:29.123Z,99086.71
2023-08-07T14:20:30.793Z,99093.38
2023-08-07T14:22:33.380Z,99093.84
2023-08-07T14:24:35.537Z,99093.48
2023-08-07T14:26:37.389Z,99106.56
2023-08-07T14:28:39.032Z,99112.70
2023-08-07T14:30:41.393Z,99113.08
2023-08-07T14:32:48.123Z,99118.33
2023-08-07T14:34:50.456Z,99116.98
2023-08-07T14:36:53.330Z,99122.23
2023-08-07T14:38:56.519Z,99124.66
2023-08-07T14:41:01.392Z,99127.66
2023-08-07T14:43:03.541Z,99124.08
2023-08-07T14:45:06.864Z,99133.04
2023-08-07T14:47:08.968Z,99133.19
2023-08-07T14:49:10.898Z,99139.91
2023-08-07T14:51:12.915Z,99142.36
2023-08-07T14:53:16.351Z,99143.24
2023-08-07T14:55:19.284Z,99145.43
2023-08-07T14:57:20.904Z,99150.41
2023-08-07T14:59:22.652Z,99150.31
2023-08-07T15:01:25.921Z,99148.08
2023-08-07T15:03:27.727Z,99152.18
2023-08-07T15:05:29.459Z,99156.59
2023-08-07T15:07:31.238Z,99163.56
2023-08-07T15:09:32.975Z,99173.01
2023-08-07T15:11:34.805Z,99175.17
2023-08-07T15:13:36.704Z,99182.41
2023-08-07T15:15:38.439Z,99186.52
2023-08-07T15:17:40.225Z,99190.20
2023-08-07T15:19:41.904Z,99193.13
2023-08-07T15:21:43.971Z,99192.07
2023-08-07T15:23:46.072Z,99196.10
2023-08-07T15:25:48.884Z,99197.31
2023-08-07T15:27:50.648Z,99207.52
2023-08-07T15:29:54.231Z,99209.24
2023-08-07T15:31:56.175Z,99212.60
2023-08-07T15:33:59.452Z,99215.16
2023-08-07T15:36:01.245Z,99220.16
2023-08-07T15:38:02.928Z,99221.23
2023-08-07T15:40:05.120Z,99223.06
2023-08-07T15:42:07.275Z,99227.53
2023-08-07T15:44:10.186Z,99226.30
2023-08-07T15:46:11.994Z,99230.86
2023-08-07T15:48:14.123Z,99229.61
2023-08-07T15:50:16.209Z,99235.06
2023-08-07T15:52:19.556Z,99238.30
2023-08-07T15:54:23.830Z,99234.09
2023-08-07T15:56:25.725Z,99247.14
2023-08-07T15:58:28.135Z,99250.70
2023-08-07T16:00:31.353Z,99248.73
2023-08-07T16:02:33.157Z,99253.91
2023-08-07T16:04:38.249Z,99255.00
2023-08-07T16:06:40.373Z,99258.58
2023-08-07T16:08:42.041Z,99257.91
2023-08-07T16:10:43.876Z,99262.71
2023-08-07T16:12:45.823Z,99264.40
2023-08-07T16:14:49.496Z,99266.65
2023-08-07T16:16:53.167Z,99272.64
2023-08-07T16:18:55.133Z,99278.43
2023-08-07T16:20:57.730Z,99279.23
2023-08-07T16:22:59.408Z,99284.08
2023-08-07T16:25:01.766Z,99286.30
2023-08-07T16:27:03.996Z,99278.29
2023-08-07T16:29:05.916Z,99291.36
2023-08-07T16:31:07.667Z,99294.65
2023-08-07T16:33:10.882Z,99297.96
2023-08-07T16:35:14.285Z,99307.27
2023-08-07T16:37:17.672Z,99306.88
2023-08-07T16:39:19.369Z,99298.04
2023-08-07T16:41:21.782Z,99316.84
2023-08-07T16:43:23.488Z,99314.48
2023-08-07T16:45:26.370Z,99317.75
2023-08-07T16:47:29.152Z,99324.32
2023-08-07T16:49:30.882Z,99327.63
2023-08-07T16:51:35.685Z,99334.05
2023-08-07T16:53:37.414Z,99342.58
2023-08-07T16:55:39.051Z,99343.52
2023-08-07T16:57:40.782Z,99344.67
2023-08-07T16:59:42.544Z,99349.64
2023-08-07T17:01:45.285Z,99358.95
2023-08-07T17:03:47.634Z,99359.06
2023-08-07T17:05:49.838Z,99364.27
2023-08-07T17:07:51.497Z,99366.40
2023-08-07T17:09:53.686Z,99370.23
2023-08-07T17:11:55.551Z,99370.91
2023-08-07T17:13:59.397Z,99376.02
2023-08-07T17:16:01.238Z,99380.08
2023-08-07T17:18:04.282Z,99391.65
2023-08-07T17:20:07.140Z,99394.81
2023-08-07T17:22:09.178Z,99396.77
2023-08-07T17:24:11.104Z,99399.55
2023-08-07T17:26:12.738Z,99401.55
2023-08-07T17:28:14.447Z,99398.58
2023-08-07T17:30:16.100Z,99400.19
2023-08-07T17:32:17.806Z,99398.05
2023-08-07T17:34:20.738Z,99400.75
2023-08-07T17:36:22.900Z,99406.08
2023-08-07T17:38:24.819Z,99411.65
2023-08-07T17:40:26.813Z,99416.42
2023-08-07T17:42:28.600Z,99418.06
2023-08-07T17:44:30.309Z,99419.64
2023-08-07T17:46:34.063Z,99426.36
2023-08-07T17:48:36.059Z,99425.99
2023-08-07T17:50:38.540Z,99428.89
2023-08-07T17:52:40.610Z,99433.11
2023-08-07T17:54:42.384Z,99435.56
2023-08-07T17:56:44.250Z,99439.23
2023-08-07T17:58:48.264Z,99447.96
2023-08-07T18:00:50.347Z,99441.28
2023-08-07T18:02:52.320Z,99455.27
2023-08-07T18:04:54.085Z,99462.70
2023-08-07T18:06:56.441Z,99466.22
2023-08-07T18:08:59.025Z,99466.55
2023-08-07T18:11:00.963Z,99470.19
2023-08-07T18:13:02.877Z,99472.40
2023-08-07T18:15:06.055Z,99478.19
2023-08-07T18:17:10.669Z,99478.36
2023-08-07T18:19:14.367Z,99479.59
2023-08-07T18:21:17.047Z,99479.11
2023-08-07T18:23:21.284Z,99482.18
2023-08-07T18:25:23.124Z,99480.62
2023-08-07T18:27:26.224Z,99481.16
2023-08-07T18:29:28.235Z,99476.70
2023-08-07T18:31:33.191Z,99476.69
2023-08-07T18:33:34.921Z,99474.25
2023-08-07T18:35:36.864Z,99480.91
2023-08-07T18:37:38.770Z,99483.63
2023-08-07T18:39:42.704Z,99484.66
2023-08-07T18:41:45.052Z,99484.23
2023-08-07T18:43:49.140Z,99487.38
2023-08-07T18:45:50.907Z,99490.25
2023-08-07T18:47:53.846Z,99492.48
2023-08-07T18:49:55.571Z,99496.92
2023-08-07T18:51:57.232Z,99488.81
2023-08-07T18:53:59.109Z,99498.48
2023-08-07T18:56:01.190Z,99498.32
2023-08-07T18:58:03.068Z,99503.69
2023-08-07T19:00:07.280Z,99504.83
2023-08-07T19:02:09.048Z,99510.77
2023-08-07T19:04:11.465Z,99508.38
2023-08-07T19:06:13.703Z,99508.83
2023-08-07T19:08:15.442Z,99511.54
2023-08-07T19:10:17.387Z,99513.27
2023-08-07T19:12:19.282Z,99512.89
2023-08-07T19:14:23.338Z,99518.10
2023-08-07T19:16:25.393Z,99516.77
2023-08-07T19:18:27.555Z,99522.34
2023-08-07T19:20:29.234Z,99519.27
2023-08-07T19:22:31.744Z,99522.35
2023-08-07T19:24:33.702Z,99520.04
2023-08-07T19:26:35.613Z,99513.34
2023-08-07T19:28:37.351Z,99512.24
2023-08-07T19:30:40.699Z,99515.23
2023-08-07T19:32:49.331Z,99523.67
2023-08-07T19:34:51.105Z,99529.62
2023-08-07T19:36:52.836Z,99527.30
2023-08-07T19:38:55.104Z,99531.56
2023-08-07T19:40:58.311Z,99536.17
2023-08-07T19:43:00.185Z,99536.44
2023-08-07T19:45:02.250Z,99538.76
2023-08-07T19:47:04.430Z,99542.38
2023-08-07T19:49:06.056Z,99545.30
2023-08-07T19:51:07.714Z,99548.55
2023-08-07T19:53:10.104Z,99542.65
2023-08-07T19:55:12.252Z,99549.30
2023-08-07T19:57:14.224Z,99553.94
2023-08-07T19:59:16.105Z,99556.39
2023-08-07T20:01:19.000Z,99554.50
2023-08-07T20:03:20.779Z,99554.29
2023-08-07T20:05:22.966Z,99557.30
2023-08-07T20:07:24.866Z,99556.49
2023-08-07T20:09:26.778Z,99557.95
2023-08-07T20:11:29.249Z,99557.67
2023-08-07T20:13:31.116Z,99560.98
2023-08-07T20:15:32.951Z,99562.54
2023-08-07T20:17:34.691Z,99564.11
2023-08-07T20:19:36.500Z,99564.86
2023-08-07T20:21:38.758Z,99560.86
2023-08-07T20:23:40.487Z,99564.01
2023-08-07T20:25:42.965Z,99562.64
2023-08-07T20:27:47.158Z,99565.77
2023-08-07T20:29:48.833Z,99569.69
2023-08-07T20:31:50.814Z,99568.00
2023-08-07T20:33:52.549Z,99571.52
2023-08-07T20:35:54.279Z,99569.29
2023-08-07T20:37:56.640Z,99571.45
2023-08-07T20:40:00.411Z,99575.10
2023-08-07T20:42:02.103Z,99578.81
2023-08-07T20:44:05.829Z,99580.00
2023-08-07T20:46:07.554Z,99580.67
2023-08-07T20:48:09.434Z,99586.61
2023-08-07T20:50:11.897Z,99588.45
2023-08-07T20:52:13.754Z,99590.69
2023-08-07T20:54:15.442Z,99591.35
2023-08-07T20:56:17.379Z,99594.95
2023-08-07T20:58:19.014Z,99598.07
2023-08-07T21:00:20.816Z,99597.92
2023-08-07T21:02:24.705Z,99591.48
2023-08-07T21:04:27.152Z,99592.75
2023-08-07T21:06:29.514Z,99590.44
2023-08-07T21:08:31.149Z,99587.08
2023-08-07T21:10:33.347Z,99589.35
2023-08-07T21:12:37.063Z,99592.32
2023-08-07T21:14:38.774Z,99596.98
2023-08-07T21:16:44.945Z,99595.80
2023-08-07T21:18:46.758Z,99592.87
2023-08-07T21:20:48.574Z,99591.57
2023-08-07T21:22:50.417Z,99590.11
2023-08-07T21:24:52.189Z,99590.38
2023-08-07T21:26:54.039Z,99599.16
2023-08-07T21:28:55.644Z,99599.42
2023-08-07T21:30:57.432Z,99599.64
2023-08-07T21:32:59.273Z,99605.70
2023-08-07T21:35:01.053Z,99607.38
2023-08-07T21:37:02.694Z,99608.89
2023-08-07T21:39:04.390Z,99613.92
2023-08-07T21:41:06.200Z,99621.93
2023-08-07T21:43:08.569Z,99624.69
2023-08-07T21:45:13.288Z,99626.38
2023-08-07T21:47:14.830Z,99630.06
2023-08-07T21:49:16.520Z,99630.11
2023-08-07T21:51:18.238Z,99627.63
2023-08-07T21:53:20.008Z,99627.58
2023-08-07T21:55:21.860Z,99628.38
2023-08-07T21:57:23.759Z,99628.48
2023-08-07T21:59:25.910Z,99627.89
2023-08-07T22:01:27.576Z,99627.55
2023-08-07T22:03:29.453Z,99627.23
2023-08-07T22:05:31.265Z,99628.26
2023-08-07T22:07:33.089Z,99627.11
2023-08-07T22:09:35.109Z,99624.73
2023-08-07T22:11:37.327Z,99624.80
2023-08-07T22:13:39.380Z,99627.81
2023-08-07T22:15:41.021Z,99635.23
2023-08-07T22:17:42.876Z,99634.15
2023-08-07T22:19:59.075Z,99635.61
2023-08-07T22:22:06.356Z,99637.98
2023-08-07T22:24:09.241Z,99637.46
2023-08-07T22:26:11.078Z,99637.13
2023-08-07T22:28:12.870Z,99640.52
2023-08-07T22:30:16.013Z,99642.66
2023-08-07T22:32:17.815Z,99647.36
2023-08-07T22:34:21.132Z,99649.73
2023-08-07T22:36:23.011Z,99651.96
2023-08-07T22:38:24.641Z,99652.31
2023-08-07T22:40:26.325Z,99653.77
2023-08-07T22:42:28.009Z,99654.62
2023-08-07T22:44:30.263Z,99661.49
2023-08-07T22:46:32.241Z,99660.91
2023-08-07T22:48:33.919Z,99664.64
2023-08-07T22:50:35.900Z,99668.60
2023-08-07T22:52:40.180Z,99674.06
2023-08-07T22:54:42.008Z,99674.81
2023-08-07T22:56:43.770Z,99677.05
2023-08-07T22:58:45.423Z,99678.51
2023-08-07T23:00:47.274Z,99684.75
2023-08-07T23:05:10.990Z,99676.30
2023-08-07T23:07:12.664Z,99681.55
2023-08-07T23:09:14.325Z,99684.45
2023-08-07T23:11:15.983Z,99688.67
2023-08-07T23:13:17.658Z,99688.98
2023-08-07T23:15:20.851Z,99693.75
2023-08-07T23:17:22.546Z,99697.41
2023-08-07T23:19:24.264Z,99696.35
2023-08-07T23:21:26.003Z,99698.39
2023-08-07T23:23:27.729Z,99700.16
2023-08-07T23:25:29.352Z,99705.48
2023-08-07T23:27:31.583Z,99703.61
2023-08-07T23:29:34.132Z,99710.88
2023-08-07T23:31:36.553Z,99711.98
2023-08-07T23:33:38.369Z,99710.20
2023-08-07T23:35:40.135Z,99709.08
2023-08-07T23:37:41.826Z,99710.14
2023-08-07T23:39:43.565Z,99709.39
2023-08-07T23:41:45.285Z,99713.51
2023-08-07T23:43:46.949Z,99712.27
2023-08-07T23:45:48.641Z,99715.89
2023-08-07T23:47:50.423Z,99714.17
2023-08-07T23:49:52.139Z,99716.94
2023-08-07T23:51:53.821Z,99714.13
2023-08-07T23:53:55.509Z,99717.23
2023-08-07T23:55:57.149Z,99723.09
2023-08-07T23:57:58.847Z,99723.91
